sensor_id;sensor_type;location;lat;lon;timestamp;temperature;humidity
20831;DHT22;10576;53.556;9.868;2022-12-13T00:01:53;-4.30;99.90
20831;DHT22;10576;53.556;9.868;2022-12-13T00:04:20;-4.40;99.90
20831;DHT22;10576;53.556;9.868;2022-12-13T00:06:46;-4.40;99.90
20831;DHT22;10576;53.556;9.868;2022-12-13T00:09:17;-4.30;99.90
20831;DHT22;10576;53.556;9.868;2022-12-13T00:11:43;-4.30;99.90
20831;DHT22;10576;53.556;9.868;2022-12-13T00:14:10;-4.30;99.90
20831;DHT22;10576;53.556;9.868;2022-12-13T00:16:38;-4.30;99.90
20831;DHT22;10576;53.556;9.868;2022-12-13T00:19:04;-4.30;99.90
20831;DHT22;10576;53.556;9.868;2022-12-13T00:21:31;-4.40;99.90
20831;DHT22;10576;53.556;9.868;2022-12-13T00:23:59;-4.50;99.90
20831;DHT22;10576;53.556;9.868;2022-12-13T00:26:27;-4.50;99.90
20831;DHT22;10576;53.556;9.868;2022-12-13T00:28:53;-4.50;99.90
20831;DHT22;10576;53.556;9.868;2022-12-13T00:31:21;-4.50;99.90
20831;DHT22;10576;53.556;9.868;2022-12-13T00:33:48;-4.50;99.90
20831;DHT22;10576;53.556;9.868;2022-12-13T00:36:15;-4.60;99.90
20831;DHT22;10576;53.556;9.868;2022-12-13T00:38:41;-4.60;99.90
20831;DHT22;10576;53.556;9.868;2022-12-13T00:41:16;-4.50;99.90
20831;DHT22;10576;53.556;9.868;2022-12-13T00:43:42;-4.50;99.90
20831;DHT22;10576;53.556;9.868;2022-12-13T00:46:13;-4.50;99.90
20831;DHT22;10576;53.556;9.868;2022-12-13T00:48:41;-4.40;99.90
20831;DHT22;10576;53.556;9.868;2022-12-13T00:51:08;-4.30;99.90
20831;DHT22;10576;53.556;9.868;2022-12-13T00:53:34;-4.50;99.90
20831;DHT22;10576;53.556;9.868;2022-12-13T00:56:00;-4.50;99.90
20831;DHT22;10576;53.556;9.868;2022-12-13T00:58:26;-4.50;99.90
20831;DHT22;10576;53.556;9.868;2022-12-13T01:00:52;-4.40;99.90
20831;DHT22;10576;53.556;9.868;2022-12-13T01:03:17;-4.40;99.90
20831;DHT22;10576;53.556;9.868;2022-12-13T01:05:50;-4.40;99.90
20831;DHT22;10576;53.556;9.868;2022-12-13T01:08:15;-4.40;99.90
20831;DHT22;10576;53.556;9.868;2022-12-13T01:10:45;-4.30;99.90
20831;DHT22;10576;53.556;9.868;2022-12-13T01:13:11;-4.30;99.90
20831;DHT22;10576;53.556;9.868;2022-12-13T01:15:45;-4.40;99.90
20831;DHT22;10576;53.556;9.868;2022-12-13T01:18:12;-4.40;99.90
20831;DHT22;10576;53.556;9.868;2022-12-13T01:20:38;-4.30;99.90
20831;DHT22;10576;53.556;9.868;2022-12-13T01:23:04;-4.30;99.90
20831;DHT22;10576;53.556;9.868;2022-12-13T01:25:30;-4.30;99.90
20831;DHT22;10576;53.556;9.868;2022-12-13T01:27:58;-4.30;99.90
20831;DHT22;10576;53.556;9.868;2022-12-13T01:30:25;-4.20;99.90
20831;DHT22;10576;53.556;9.868;2022-12-13T01:32:50;-4.20;99.90
20831;DHT22;10576;53.556;9.868;2022-12-13T01:35:16;-4.10;99.90
20831;DHT22;10576;53.556;9.868;2022-12-13T01:37:42;-4.10;99.90
20831;DHT22;10576;53.556;9.868;2022-12-13T01:40:08;-4.10;99.90
20831;DHT22;10576;53.556;9.868;2022-12-13T01:42:38;-4.00;99.90
20831;DHT22;10576;53.556;9.868;2022-12-13T01:45:25;-4.00;99.90
20831;DHT22;10576;53.556;9.868;2022-12-13T01:47:55;-4.00;99.90
20831;DHT22;10576;53.556;9.868;2022-12-13T01:50:40;-4.00;99.90
20831;DHT22;10576;53.556;9.868;2022-12-13T01:53:08;-3.90;99.90
20831;DHT22;10576;53.556;9.868;2022-12-13T01:55:38;-4.00;99.90
20831;DHT22;10576;53.556;9.868;2022-12-13T01:58:05;-3.90;99.90
20831;DHT22;10576;53.556;9.868;2022-12-13T02:00:34;-4.00;99.90
20831;DHT22;10576;53.556;9.868;2022-12-13T02:03:00;-4.10;99.90
20831;DHT22;10576;53.556;9.868;2022-12-13T02:05:33;-4.00;99.90
20831;DHT22;10576;53.556;9.868;2022-12-13T02:08:01;-4.00;99.90
20831;DHT22;10576;53.556;9.868;2022-12-13T02:10:27;-4.00;99.90
20831;DHT22;10576;53.556;9.868;2022-12-13T02:12:54;-4.00;99.90
20831;DHT22;10576;53.556;9.868;2022-12-13T02:15:20;-4.00;99.90
20831;DHT22;10576;53.556;9.868;2022-12-13T02:23:22;-4.00;99.90
20831;DHT22;10576;53.556;9.868;2022-12-13T02:34:15;-3.60;99.90
20831;DHT22;10576;53.556;9.868;2022-12-13T02:39:27;-3.50;99.90
20831;DHT22;10576;53.556;9.868;2022-12-13T02:42:05;-3.50;99.90
20831;DHT22;10576;53.556;9.868;2022-12-13T02:44:36;-3.40;99.90
20831;DHT22;10576;53.556;9.868;2022-12-13T02:49:36;-3.40;99.90
20831;DHT22;10576;53.556;9.868;2022-12-13T02:52:07;-3.40;99.90
20831;DHT22;10576;53.556;9.868;2022-12-13T02:54:33;-3.30;99.90
20831;DHT22;10576;53.556;9.868;2022-12-13T02:56:59;-3.30;99.90
20831;DHT22;10576;53.556;9.868;2022-12-13T02:59:29;-3.20;99.90
20831;DHT22;10576;53.556;9.868;2022-12-13T03:02:26;-3.20;99.90
20831;DHT22;10576;53.556;9.868;2022-12-13T03:05:13;-3.20;99.90
20831;DHT22;10576;53.556;9.868;2022-12-13T03:10:33;-3.30;99.90
20831;DHT22;10576;53.556;9.868;2022-12-13T03:13:13;-3.20;99.90
20831;DHT22;10576;53.556;9.868;2022-12-13T03:18:40;-3.10;99.90
20831;DHT22;10576;53.556;9.868;2022-12-13T03:21:08;-3.20;99.90
20831;DHT22;10576;53.556;9.868;2022-12-13T03:23:35;-3.20;99.90
20831;DHT22;10576;53.556;9.868;2022-12-13T03:26:11;-3.10;99.90
20831;DHT22;10576;53.556;9.868;2022-12-13T03:28:38;-3.10;99.90
20831;DHT22;10576;53.556;9.868;2022-12-13T03:31:05;-3.10;99.90
20831;DHT22;10576;53.556;9.868;2022-12-13T03:33:31;-3.00;99.90
20831;DHT22;10576;53.556;9.868;2022-12-13T03:35:57;-3.00;99.90
20831;DHT22;10576;53.556;9.868;2022-12-13T03:38:23;-2.90;99.90
20831;DHT22;10576;53.556;9.868;2022-12-13T03:40:56;-2.90;99.90
20831;DHT22;10576;53.556;9.868;2022-12-13T03:43:23;-2.90;99.90
20831;DHT22;10576;53.556;9.868;2022-12-13T03:45:52;-3.00;99.90
20831;DHT22;10576;53.556;9.868;2022-12-13T03:48:19;-3.00;99.90
20831;DHT22;10576;53.556;9.868;2022-12-13T03:50:44;-3.00;99.90
20831;DHT22;10576;53.556;9.868;2022-12-13T03:53:10;-2.90;99.90
20831;DHT22;10576;53.556;9.868;2022-12-13T03:55:36;-2.90;99.90
20831;DHT22;10576;53.556;9.868;2022-12-13T03:58:01;-3.00;99.90
20831;DHT22;10576;53.556;9.868;2022-12-13T04:00:27;-3.00;99.90
20831;DHT22;10576;53.556;9.868;2022-12-13T04:02:52;-3.00;99.90
20831;DHT22;10576;53.556;9.868;2022-12-13T04:05:18;-2.90;99.90
20831;DHT22;10576;53.556;9.868;2022-12-13T04:07:44;-2.80;99.90
20831;DHT22;10576;53.556;9.868;2022-12-13T04:10:10;-2.90;99.90
20831;DHT22;10576;53.556;9.868;2022-12-13T04:12:35;-3.00;99.90
20831;DHT22;10576;53.556;9.868;2022-12-13T04:15:19;-3.10;99.90
20831;DHT22;10576;53.556;9.868;2022-12-13T04:17:45;-3.10;99.90
20831;DHT22;10576;53.556;9.868;2022-12-13T04:20:11;-3.00;99.90
20831;DHT22;10576;53.556;9.868;2022-12-13T04:22:37;-3.00;99.90
20831;DHT22;10576;53.556;9.868;2022-12-13T04:25:03;-3.00;99.90
20831;DHT22;10576;53.556;9.868;2022-12-13T04:27:29;-3.00;99.90
20831;DHT22;10576;53.556;9.868;2022-12-13T04:29:55;-2.90;99.90
20831;DHT22;10576;53.556;9.868;2022-12-13T04:32:21;-2.90;99.90
20831;DHT22;10576;53.556;9.868;2022-12-13T04:34:47;-2.90;99.90
20831;DHT22;10576;53.556;9.868;2022-12-13T04:37:12;-2.90;99.90
20831;DHT22;10576;53.556;9.868;2022-12-13T04:39:38;-2.90;99.90
20831;DHT22;10576;53.556;9.868;2022-12-13T04:42:04;-2.90;99.90
20831;DHT22;10576;53.556;9.868;2022-12-13T04:44:29;-2.90;99.90
20831;DHT22;10576;53.556;9.868;2022-12-13T04:46:55;-2.80;99.90
20831;DHT22;10576;53.556;9.868;2022-12-13T04:49:21;-2.70;99.90
20831;DHT22;10576;53.556;9.868;2022-12-13T04:51:47;-2.70;99.90
20831;DHT22;10576;53.556;9.868;2022-12-13T04:54:13;-2.70;99.90
20831;DHT22;10576;53.556;9.868;2022-12-13T04:56:38;-2.70;99.90
20831;DHT22;10576;53.556;9.868;2022-12-13T04:59:04;-2.60;99.90
20831;DHT22;10576;53.556;9.868;2022-12-13T05:01:30;-2.60;99.90
20831;DHT22;10576;53.556;9.868;2022-12-13T05:03:55;-2.70;99.90
20831;DHT22;10576;53.556;9.868;2022-12-13T05:06:21;-2.60;99.90
20831;DHT22;10576;53.556;9.868;2022-12-13T05:08:47;-2.60;99.90
20831;DHT22;10576;53.556;9.868;2022-12-13T05:11:13;-2.60;99.90
20831;DHT22;10576;53.556;9.868;2022-12-13T05:13:38;-2.50;99.90
20831;DHT22;10576;53.556;9.868;2022-12-13T05:16:06;-2.50;99.90
20831;DHT22;10576;53.556;9.868;2022-12-13T05:18:33;-2.50;99.90
20831;DHT22;10576;53.556;9.868;2022-12-13T05:21:04;-2.50;99.90
20831;DHT22;10576;53.556;9.868;2022-12-13T05:23:30;-2.40;99.90
20831;DHT22;10576;53.556;9.868;2022-12-13T05:25:56;-1.60;99.90
20831;DHT22;10576;53.556;9.868;2022-12-13T05:28:23;-2.50;99.90
20831;DHT22;10576;53.556;9.868;2022-12-13T05:30:51;-2.30;99.90
20831;DHT22;10576;53.556;9.868;2022-12-13T05:33:17;-2.30;99.90
20831;DHT22;10576;53.556;9.868;2022-12-13T05:35:43;-2.30;99.90
20831;DHT22;10576;53.556;9.868;2022-12-13T05:38:08;-2.20;99.90
20831;DHT22;10576;53.556;9.868;2022-12-13T05:40:34;-2.20;99.90
20831;DHT22;10576;53.556;9.868;2022-12-13T05:43:00;-2.30;99.90
20831;DHT22;10576;53.556;9.868;2022-12-13T05:47:52;-2.30;99.90
20831;DHT22;10576;53.556;9.868;2022-12-13T05:50:18;-2.30;99.90
20831;DHT22;10576;53.556;9.868;2022-12-13T05:52:44;-2.10;99.90
20831;DHT22;10576;53.556;9.868;2022-12-13T05:55:10;-2.10;99.90
20831;DHT22;10576;53.556;9.868;2022-12-13T05:57:36;-2.20;99.90
20831;DHT22;10576;53.556;9.868;2022-12-13T06:02:30;-2.30;99.90
20831;DHT22;10576;53.556;9.868;2022-12-13T06:04:56;-2.20;99.90
20831;DHT22;10576;53.556;9.868;2022-12-13T06:07:21;-2.20;99.90
20831;DHT22;10576;53.556;9.868;2022-12-13T06:09:47;-2.20;99.90
20831;DHT22;10576;53.556;9.868;2022-12-13T06:12:12;-2.20;99.90
20831;DHT22;10576;53.556;9.868;2022-12-13T06:14:40;-2.20;99.90
20831;DHT22;10576;53.556;9.868;2022-12-13T06:17:06;-2.30;99.90
20831;DHT22;10576;53.556;9.868;2022-12-13T06:19:31;-2.30;99.90
20831;DHT22;10576;53.556;9.868;2022-12-13T06:21:57;-2.30;99.90
20831;DHT22;10576;53.556;9.868;2022-12-13T06:24:23;-2.30;99.90
20831;DHT22;10576;53.556;9.868;2022-12-13T06:26:50;-2.40;99.90
20831;DHT22;10576;53.556;9.868;2022-12-13T06:29:17;-2.50;99.90
20831;DHT22;10576;53.556;9.868;2022-12-13T06:31:43;-2.40;99.90
20831;DHT22;10576;53.556;9.868;2022-12-13T06:34:09;-2.50;99.90
20831;DHT22;10576;53.556;9.868;2022-12-13T06:36:34;-2.60;99.90
20831;DHT22;10576;53.556;9.868;2022-12-13T06:39:05;-2.50;99.90
20831;DHT22;10576;53.556;9.868;2022-12-13T06:41:31;-2.40;99.90
20831;DHT22;10576;53.556;9.868;2022-12-13T06:43:57;-2.60;99.90
20831;DHT22;10576;53.556;9.868;2022-12-13T06:46:23;-2.70;99.90
20831;DHT22;10576;53.556;9.868;2022-12-13T06:48:49;-2.60;99.90
20831;DHT22;10576;53.556;9.868;2022-12-13T06:51:15;-2.50;99.90
20831;DHT22;10576;53.556;9.868;2022-12-13T06:53:41;-2.60;99.90
20831;DHT22;10576;53.556;9.868;2022-12-13T06:56:09;-2.50;99.90
20831;DHT22;10576;53.556;9.868;2022-12-13T06:58:35;-2.50;99.90
20831;DHT22;10576;53.556;9.868;2022-12-13T07:01:04;-2.30;99.90
20831;DHT22;10576;53.556;9.868;2022-12-13T07:03:30;-2.20;99.90
20831;DHT22;10576;53.556;9.868;2022-12-13T07:06:05;-2.20;99.90
20831;DHT22;10576;53.556;9.868;2022-12-13T07:08:31;-2.30;99.90
20831;DHT22;10576;53.556;9.868;2022-12-13T07:10:57;-2.20;99.90
20831;DHT22;10576;53.556;9.868;2022-12-13T07:13:23;-2.30;99.90
20831;DHT22;10576;53.556;9.868;2022-12-13T07:15:49;-2.20;99.90
20831;DHT22;10576;53.556;9.868;2022-12-13T07:18:15;-2.10;99.90
20831;DHT22;10576;53.556;9.868;2022-12-13T07:20:42;-2.10;99.90
20831;DHT22;10576;53.556;9.868;2022-12-13T07:23:08;-2.10;99.90
20831;DHT22;10576;53.556;9.868;2022-12-13T07:25:34;-2.10;99.90
20831;DHT22;10576;53.556;9.868;2022-12-13T07:28:02;-2.10;99.90
20831;DHT22;10576;53.556;9.868;2022-12-13T07:30:29;-2.10;99.90
20831;DHT22;10576;53.556;9.868;2022-12-13T07:32:55;-2.00;99.90
20831;DHT22;10576;53.556;9.868;2022-12-13T07:35:20;-2.10;99.90
20831;DHT22;10576;53.556;9.868;2022-12-13T07:37:46;-2.00;99.90
20831;DHT22;10576;53.556;9.868;2022-12-13T07:40:11;-2.00;99.90
20831;DHT22;10576;53.556;9.868;2022-12-13T07:42:37;-2.00;99.90
20831;DHT22;10576;53.556;9.868;2022-12-13T07:45:03;-2.00;99.90
20831;DHT22;10576;53.556;9.868;2022-12-13T07:47:32;-2.00;99.90
20831;DHT22;10576;53.556;9.868;2022-12-13T07:49:57;-1.90;99.90
20831;DHT22;10576;53.556;9.868;2022-12-13T07:52:23;-1.90;99.90
20831;DHT22;10576;53.556;9.868;2022-12-13T07:54:49;-1.90;99.90
20831;DHT22;10576;53.556;9.868;2022-12-13T07:57:15;-1.90;99.90
20831;DHT22;10576;53.556;9.868;2022-12-13T07:59:40;-1.90;99.90
20831;DHT22;10576;53.556;9.868;2022-12-13T08:02:08;-1.90;99.90
20831;DHT22;10576;53.556;9.868;2022-12-13T08:04:37;-1.80;99.90
20831;DHT22;10576;53.556;9.868;2022-12-13T08:07:06;-1.80;99.90
20831;DHT22;10576;53.556;9.868;2022-12-13T08:09:33;-1.80;99.90
20831;DHT22;10576;53.556;9.868;2022-12-13T08:11:59;-0.40;99.90
20831;DHT22;10576;53.556;9.868;2022-12-13T08:14:24;-0.50;99.90
20831;DHT22;10576;53.556;9.868;2022-12-13T08:16:50;-1.70;99.90
20831;DHT22;10576;53.556;9.868;2022-12-13T08:19:16;-1.70;99.90
20831;DHT22;10576;53.556;9.868;2022-12-13T08:21:41;-1.70;99.90
20831;DHT22;10576;53.556;9.868;2022-12-13T08:24:07;-1.70;99.90
20831;DHT22;10576;53.556;9.868;2022-12-13T08:26:33;-1.80;99.90
20831;DHT22;10576;53.556;9.868;2022-12-13T08:28:59;-1.80;99.90
20831;DHT22;10576;53.556;9.868;2022-12-13T08:31:25;-1.90;99.90
20831;DHT22;10576;53.556;9.868;2022-12-13T08:33:50;-1.00;99.90
20831;DHT22;10576;53.556;9.868;2022-12-13T08:36:16;-1.90;99.90
20831;DHT22;10576;53.556;9.868;2022-12-13T08:38:46;-1.80;99.90
20831;DHT22;10576;53.556;9.868;2022-12-13T08:41:12;-1.90;99.90
20831;DHT22;10576;53.556;9.868;2022-12-13T08:43:38;-0.50;99.90
20831;DHT22;10576;53.556;9.868;2022-12-13T08:46:04;-1.80;99.90
20831;DHT22;10576;53.556;9.868;2022-12-13T08:48:30;-1.80;99.90
20831;DHT22;10576;53.556;9.868;2022-12-13T08:51:04;-1.70;99.90
20831;DHT22;10576;53.556;9.868;2022-12-13T08:53:30;-1.70;99.90
20831;DHT22;10576;53.556;9.868;2022-12-13T08:56:03;-1.50;99.90
20831;DHT22;10576;53.556;9.868;2022-12-13T08:58:30;-1.60;99.90
20831;DHT22;10576;53.556;9.868;2022-12-13T09:00:56;-1.50;99.90
20831;DHT22;10576;53.556;9.868;2022-12-13T09:03:22;-1.40;99.90
20831;DHT22;10576;53.556;9.868;2022-12-13T09:05:48;-1.30;99.90
20831;DHT22;10576;53.556;9.868;2022-12-13T09:08:14;-0.50;99.90
20831;DHT22;10576;53.556;9.868;2022-12-13T09:10:39;-1.20;99.90
20831;DHT22;10576;53.556;9.868;2022-12-13T09:13:05;-1.10;99.90
20831;DHT22;10576;53.556;9.868;2022-12-13T09:15:31;-0.30;99.90
20831;DHT22;10576;53.556;9.868;2022-12-13T09:17:57;-1.00;99.90
20831;DHT22;10576;53.556;9.868;2022-12-13T09:20:23;-1.00;99.90
20831;DHT22;10576;53.556;9.868;2022-12-13T09:22:49;-1.00;99.90
20831;DHT22;10576;53.556;9.868;2022-12-13T09:25:15;-1.10;99.90
20831;DHT22;10576;53.556;9.868;2022-12-13T09:27:41;-1.10;99.90
20831;DHT22;10576;53.556;9.868;2022-12-13T09:30:08;-1.20;99.90
20831;DHT22;10576;53.556;9.868;2022-12-13T09:32:38;-1.20;99.90
20831;DHT22;10576;53.556;9.868;2022-12-13T09:35:04;-1.10;99.90
20831;DHT22;10576;53.556;9.868;2022-12-13T09:37:30;-1.00;99.90
20831;DHT22;10576;53.556;9.868;2022-12-13T09:39:56;-0.90;99.90
20831;DHT22;10576;53.556;9.868;2022-12-13T09:42:24;-0.80;99.90
20831;DHT22;10576;53.556;9.868;2022-12-13T09:44:53;-0.70;99.90
20831;DHT22;10576;53.556;9.868;2022-12-13T09:47:42;-0.60;99.90
20831;DHT22;10576;53.556;9.868;2022-12-13T09:50:14;-0.70;99.90
20831;DHT22;10576;53.556;9.868;2022-12-13T09:52:43;-0.70;99.90
20831;DHT22;10576;53.556;9.868;2022-12-13T09:55:21;-0.70;99.90
20831;DHT22;10576;53.556;9.868;2022-12-13T09:57:48;-0.60;99.90
20831;DHT22;10576;53.556;9.868;2022-12-13T10:00:17;-0.60;99.90
20831;DHT22;10576;53.556;9.868;2022-12-13T10:02:49;-0.70;99.90
20831;DHT22;10576;53.556;9.868;2022-12-13T10:07:59;-0.60;99.90
20831;DHT22;10576;53.556;9.868;2022-12-13T10:10:25;-0.60;99.90
20831;DHT22;10576;53.556;9.868;2022-12-13T10:12:57;-0.60;99.90
20831;DHT22;10576;53.556;9.868;2022-12-13T10:15:26;-0.40;99.90
20831;DHT22;10576;53.556;9.868;2022-12-13T10:17:53;-0.10;99.90
20831;DHT22;10576;53.556;9.868;2022-12-13T10:20:20;-0.40;99.90
20831;DHT22;10576;53.556;9.868;2022-12-13T10:22:47;-0.40;99.90
20831;DHT22;10576;53.556;9.868;2022-12-13T10:25:13;-0.40;99.90
20831;DHT22;10576;53.556;9.868;2022-12-13T10:27:45;-0.50;99.90
20831;DHT22;10576;53.556;9.868;2022-12-13T10:35:29;-0.20;99.90
20831;DHT22;10576;53.556;9.868;2022-12-13T10:37:59;-0.30;99.90
20831;DHT22;10576;53.556;9.868;2022-12-13T10:40:39;-0.30;99.90
20831;DHT22;10576;53.556;9.868;2022-12-13T10:45:43;-0.30;99.90
20831;DHT22;10576;53.556;9.868;2022-12-13T10:48:20;-0.20;99.90
20831;DHT22;10576;53.556;9.868;2022-12-13T10:51:03;-0.20;99.90
20831;DHT22;10576;53.556;9.868;2022-12-13T10:53:36;0.00;99.90
20831;DHT22;10576;53.556;9.868;2022-12-13T10:56:03;0.00;99.90
20831;DHT22;10576;53.556;9.868;2022-12-13T10:58:39;-0.10;99.90
20831;DHT22;10576;53.556;9.868;2022-12-13T11:01:23;-0.10;99.90
20831;DHT22;10576;53.556;9.868;2022-12-13T11:04:05;-0.10;99.90
20831;DHT22;10576;53.556;9.868;2022-12-13T11:06:44;-0.10;99.90
20831;DHT22;10576;53.556;9.868;2022-12-13T11:12:00;-0.20;99.90
20831;DHT22;10576;53.556;9.868;2022-12-13T11:14:33;0.00;99.90
20831;DHT22;10576;53.556;9.868;2022-12-13T11:17:06;-0.10;99.90
20831;DHT22;10576;53.556;9.868;2022-12-13T11:19:37;-0.20;99.90
20831;DHT22;10576;53.556;9.868;2022-12-13T11:22:04;-0.20;99.90
20831;DHT22;10576;53.556;9.868;2022-12-13T11:24:33;-0.20;99.90
20831;DHT22;10576;53.556;9.868;2022-12-13T11:35:45;-0.10;99.90
20831;DHT22;10576;53.556;9.868;2022-12-13T11:38:47;-0.10;99.90
20831;DHT22;10576;53.556;9.868;2022-12-13T11:44:05;0.00;99.90
20831;DHT22;10576;53.556;9.868;2022-12-13T11:46:39;0.20;99.90
20831;DHT22;10576;53.556;9.868;2022-12-13T11:49:23;0.10;99.90
20831;DHT22;10576;53.556;9.868;2022-12-13T11:52:05;0.10;99.90
20831;DHT22;10576;53.556;9.868;2022-12-13T12:05:36;0.40;99.90
20831;DHT22;10576;53.556;9.868;2022-12-13T12:08:14;0.40;99.90
20831;DHT22;10576;53.556;9.868;2022-12-13T12:10:42;0.40;99.90
20831;DHT22;10576;53.556;9.868;2022-12-13T12:13:17;0.50;99.90
20831;DHT22;10576;53.556;9.868;2022-12-13T12:18:51;0.40;99.90
20831;DHT22;10576;53.556;9.868;2022-12-13T12:21:42;0.30;99.90
20831;DHT22;10576;53.556;9.868;2022-12-13T12:33:15;0.40;99.90
20831;DHT22;10576;53.556;9.868;2022-12-13T13:03:23;0.70;99.90
20831;DHT22;10576;53.556;9.868;2022-12-13T13:06:00;0.60;99.90
20831;DHT22;10576;53.556;9.868;2022-12-13T13:08:42;0.60;99.90
20831;DHT22;10576;53.556;9.868;2022-12-13T13:11:09;0.60;99.90
20831;DHT22;10576;53.556;9.868;2022-12-13T13:13:59;0.60;99.90
20831;DHT22;10576;53.556;9.868;2022-12-13T13:16:38;0.60;99.90
20831;DHT22;10576;53.556;9.868;2022-12-13T13:24:25;0.60;99.90
20831;DHT22;10576;53.556;9.868;2022-12-13T13:26:53;0.70;99.90
20831;DHT22;10576;53.556;9.868;2022-12-13T13:34:40;0.60;99.90
20831;DHT22;10576;53.556;9.868;2022-12-13T13:39:56;0.50;99.90
20831;DHT22;10576;53.556;9.868;2022-12-13T13:42:29;0.40;99.90
20831;DHT22;10576;53.556;9.868;2022-12-13T13:45:14;0.50;99.90
20831;DHT22;10576;53.556;9.868;2022-12-13T13:47:42;0.60;99.90
20831;DHT22;10576;53.556;9.868;2022-12-13T13:58:31;0.40;99.90
20831;DHT22;10576;53.556;9.868;2022-12-13T14:12:52;0.20;99.90
20831;DHT22;10576;53.556;9.868;2022-12-13T14:19:12;0.20;99.90
20831;DHT22;10576;53.556;9.868;2022-12-13T14:28:55;0.10;99.90
20831;DHT22;10576;53.556;9.868;2022-12-13T14:31:33;0.20;99.90
20831;DHT22;10576;53.556;9.868;2022-12-13T14:34:02;0.20;99.90
20831;DHT22;10576;53.556;9.868;2022-12-13T14:36:31;0.20;99.90
20831;DHT22;10576;53.556;9.868;2022-12-13T14:39:21;0.20;99.90
20831;DHT22;10576;53.556;9.868;2022-12-13T14:41:50;0.30;99.90
20831;DHT22;10576;53.556;9.868;2022-12-13T14:44:25;0.10;99.90
20831;DHT22;10576;53.556;9.868;2022-12-13T14:46:55;0.10;99.90
20831;DHT22;10576;53.556;9.868;2022-12-13T14:49:24;0.20;99.90
20831;DHT22;10576;53.556;9.868;2022-12-13T14:55:01;0.00;99.90
20831;DHT22;10576;53.556;9.868;2022-12-13T14:57:32;-0.10;99.90
20831;DHT22;10576;53.556;9.868;2022-12-13T15:00:00;-0.10;99.90
20831;DHT22;10576;53.556;9.868;2022-12-13T15:02:30;-0.10;99.90
20831;DHT22;10576;53.556;9.868;2022-12-13T15:05:01;-0.10;99.90
20831;DHT22;10576;53.556;9.868;2022-12-13T15:12:44;-0.30;99.90
20831;DHT22;10576;53.556;9.868;2022-12-13T15:15:28;-0.40;99.90
20831;DHT22;10576;53.556;9.868;2022-12-13T15:18:23;-0.50;99.90
20831;DHT22;10576;53.556;9.868;2022-12-13T15:20:51;-0.50;99.90
20831;DHT22;10576;53.556;9.868;2022-12-13T15:23:25;-0.60;99.90
20831;DHT22;10576;53.556;9.868;2022-12-13T15:26:00;-0.70;99.90
20831;DHT22;10576;53.556;9.868;2022-12-13T15:28:31;-0.60;99.90
20831;DHT22;10576;53.556;9.868;2022-12-13T15:31:00;-0.70;99.90
20831;DHT22;10576;53.556;9.868;2022-12-13T15:33:28;-0.80;99.90
20831;DHT22;10576;53.556;9.868;2022-12-13T15:38:30;-1.00;99.90
20831;DHT22;10576;53.556;9.868;2022-12-13T15:40:56;-1.10;99.90
20831;DHT22;10576;53.556;9.868;2022-12-13T15:43:29;-1.10;99.90
20831;DHT22;10576;53.556;9.868;2022-12-13T15:45:56;-1.10;99.90
20831;DHT22;10576;53.556;9.868;2022-12-13T15:48:27;-1.20;99.90
20831;DHT22;10576;53.556;9.868;2022-12-13T15:51:14;-1.20;99.90
20831;DHT22;10576;53.556;9.868;2022-12-13T15:54:04;-1.20;99.90
20831;DHT22;10576;53.556;9.868;2022-12-13T15:56:57;-1.30;99.90
20831;DHT22;10576;53.556;9.868;2022-12-13T16:01:55;-1.40;99.90
20831;DHT22;10576;53.556;9.868;2022-12-13T16:04:31;-1.40;99.90
20831;DHT22;10576;53.556;9.868;2022-12-13T16:06:57;-1.40;99.90
20831;DHT22;10576;53.556;9.868;2022-12-13T16:09:26;-1.40;99.90
20831;DHT22;10576;53.556;9.868;2022-12-13T16:11:57;-1.40;99.90
20831;DHT22;10576;53.556;9.868;2022-12-13T16:17:26;-1.50;99.90
20831;DHT22;10576;53.556;9.868;2022-12-13T16:19:55;-1.70;99.90
20831;DHT22;10576;53.556;9.868;2022-12-13T16:22:22;-1.70;99.90
20831;DHT22;10576;53.556;9.868;2022-12-13T16:24:49;-1.70;99.90
20831;DHT22;10576;53.556;9.868;2022-12-13T16:27:15;-1.70;99.90
20831;DHT22;10576;53.556;9.868;2022-12-13T16:29:42;-1.60;99.90
20831;DHT22;10576;53.556;9.868;2022-12-13T16:32:08;-1.60;99.90
20831;DHT22;10576;53.556;9.868;2022-12-13T16:34:37;-1.70;99.90
20831;DHT22;10576;53.556;9.868;2022-12-13T16:37:03;-1.70;99.90
20831;DHT22;10576;53.556;9.868;2022-12-13T16:39:29;-1.70;99.90
20831;DHT22;10576;53.556;9.868;2022-12-13T16:41:55;-1.70;99.90
20831;DHT22;10576;53.556;9.868;2022-12-13T16:44:33;-1.70;99.90
20831;DHT22;10576;53.556;9.868;2022-12-13T16:47:00;-1.70;99.90
20831;DHT22;10576;53.556;9.868;2022-12-13T16:49:29;-1.60;99.90
20831;DHT22;10576;53.556;9.868;2022-12-13T16:51:55;-1.80;99.90
20831;DHT22;10576;53.556;9.868;2022-12-13T16:54:23;-1.70;99.90
20831;DHT22;10576;53.556;9.868;2022-12-13T16:56:50;-1.70;99.90
20831;DHT22;10576;53.556;9.868;2022-12-13T16:59:18;-1.60;99.90
20831;DHT22;10576;53.556;9.868;2022-12-13T17:04:24;-1.70;99.90
20831;DHT22;10576;53.556;9.868;2022-12-13T17:06:51;-1.60;99.90
20831;DHT22;10576;53.556;9.868;2022-12-13T17:09:18;-1.70;99.90
20831;DHT22;10576;53.556;9.868;2022-12-13T17:11:44;-1.70;99.90
20831;DHT22;10576;53.556;9.868;2022-12-13T17:14:10;-1.70;99.90
20831;DHT22;10576;53.556;9.868;2022-12-13T17:16:35;-1.80;99.90
20831;DHT22;10576;53.556;9.868;2022-12-13T17:19:01;-1.80;99.90
20831;DHT22;10576;53.556;9.868;2022-12-13T17:21:27;-1.80;99.90
20831;DHT22;10576;53.556;9.868;2022-12-13T17:23:58;-1.90;99.90
20831;DHT22;10576;53.556;9.868;2022-12-13T17:26:26;-1.80;99.90
20831;DHT22;10576;53.556;9.868;2022-12-13T17:28:52;-1.80;99.90
20831;DHT22;10576;53.556;9.868;2022-12-13T17:31:19;-1.80;99.90
20831;DHT22;10576;53.556;9.868;2022-12-13T17:33:45;-1.70;99.90
20831;DHT22;10576;53.556;9.868;2022-12-13T17:36:12;-1.70;99.90
20831;DHT22;10576;53.556;9.868;2022-12-13T17:38:43;-1.60;99.90
20831;DHT22;10576;53.556;9.868;2022-12-13T17:41:10;-1.70;99.90
20831;DHT22;10576;53.556;9.868;2022-12-13T17:43:36;-1.80;99.90
20831;DHT22;10576;53.556;9.868;2022-12-13T17:46:08;-1.80;99.90
20831;DHT22;10576;53.556;9.868;2022-12-13T17:48:34;-1.70;99.90
20831;DHT22;10576;53.556;9.868;2022-12-13T17:51:00;-1.80;99.90
20831;DHT22;10576;53.556;9.868;2022-12-13T17:53:26;-1.80;99.90
20831;DHT22;10576;53.556;9.868;2022-12-13T17:55:59;-1.80;99.90
20831;DHT22;10576;53.556;9.868;2022-12-13T17:58:26;-1.70;99.90
20831;DHT22;10576;53.556;9.868;2022-12-13T18:00:53;-1.70;99.90
20831;DHT22;10576;53.556;9.868;2022-12-13T18:03:19;-1.80;99.90
20831;DHT22;10576;53.556;9.868;2022-12-13T18:05:54;-1.80;99.90
20831;DHT22;10576;53.556;9.868;2022-12-13T18:08:21;-1.80;99.90
20831;DHT22;10576;53.556;9.868;2022-12-13T18:10:56;-1.80;99.90
20831;DHT22;10576;53.556;9.868;2022-12-13T18:13:24;-1.80;99.90
20831;DHT22;10576;53.556;9.868;2022-12-13T18:15:51;-1.80;99.90
20831;DHT22;10576;53.556;9.868;2022-12-13T18:18:17;-1.80;99.90
20831;DHT22;10576;53.556;9.868;2022-12-13T18:20:43;-1.80;99.90
20831;DHT22;10576;53.556;9.868;2022-12-13T18:23:10;-1.80;99.90
20831;DHT22;10576;53.556;9.868;2022-12-13T18:25:36;-1.80;99.90
20831;DHT22;10576;53.556;9.868;2022-12-13T18:28:02;-1.80;99.90
20831;DHT22;10576;53.556;9.868;2022-12-13T18:30:29;-1.90;99.90
20831;DHT22;10576;53.556;9.868;2022-12-13T18:32:56;-2.00;99.90